Terminal Aerodrome Forecast
Issued by NWS Wilmington, OH

Current Version | Previous Version | Graphics & Text | Print | Product List | Glossary On
Versions: 1 2 3 4 5 6 7 8 9 10 11 12 13 14 15 16 17 18 19 20 21 22 23
885
FTUS41 KILN 182333
TAFDAY
TAF
KDAY 182333Z 1900/1924 24006KT P6SM OVC008
     FM190300 22005KT P6SM OVC010
     FM191100 VRB03KT 5SM BR SCT012 BKN250
     FM191600 14005KT P6SM BKN250
     FM192200 11007KT P6SM OVC070=

USA.gov is the U.S. government's official web portal to all federal, state and local government web resources and services.